Main page
METAR-TAF:

METAR-TAF

Airports :

Inverness Airport

Inverness, Scotland

latitude: 57-32N, longitude: 004-03W, elevation: 9 m

Current weather observation

The report was made 26 minutes ago, at 06:20 UTC
Wind 4 kt from the South
Temperature 15°C
Humidity 82%
Pressure 1001 hPa
Visibility 10 km or more
Few clouds at a height of 3000 ft
Scattered clouds at a height of 4100 ft
light rain

METAR: EGPE 190620Z 18004KT 9999 -RA FEW030 SCT041 15/12 Q1001

Time: 07:46 (06:46 UTC)

Forecast

The report was made 1 hour and 48 minutes ago, at 04:58 UTC
Forecast valid from 19 at 06 UTC to 19 at 15 UTC
Wind 5 kt from the South
Visibility 10 km or more
Scattered clouds at a height of 3500 ft
Temporary
from 19 at 06 UTC to 19 at 15 UTC
Visibility: 5000 m
rain, rain showers

TAF: EGPE 190458Z 1906/1915 19005KT 9999 SCT035 TEMPO 1906/1915 5000 RA SHRA

Weather observations and forecasts of more than 4000 airports (METAR and TAF reports).

The available stations are represented by yellow and red dots on the map.

Hover mouse over dot to see the name of the station.

Then click to see weather observations and forecasts.

To change the map : click on the green buttons with a black cross to zoom in, on the green button with a dash to zoom out, or on the green arrows for adjacent maps.


METAR-TAF: